sensor_id;sensor_type;location;lat;lon;timestamp;P1;durP1;ratioP1;P2;durP2;ratioP2
7665;SDS011;3875;46.562;4.898;2022-12-18T00:00:00;41.50;;;20.00;;
7665;SDS011;3875;46.562;4.898;2022-12-18T00:02:26;35.73;;;17.73;;
7665;SDS011;3875;46.562;4.898;2022-12-18T00:04:52;32.27;;;16.37;;
7665;SDS011;3875;46.562;4.898;2022-12-18T00:07:17;30.43;;;16.57;;
7665;SDS011;3875;46.562;4.898;2022-12-18T00:09:43;34.70;;;17.60;;
7665;SDS011;3875;46.562;4.898;2022-12-18T00:12:09;33.83;;;15.40;;
7665;SDS011;3875;46.562;4.898;2022-12-18T00:14:34;36.87;;;17.20;;
7665;SDS011;3875;46.562;4.898;2022-12-18T00:17:00;33.77;;;17.27;;
7665;SDS011;3875;46.562;4.898;2022-12-18T00:19:26;35.40;;;16.80;;
7665;SDS011;3875;46.562;4.898;2022-12-18T00:21:52;35.60;;;18.50;;
7665;SDS011;3875;46.562;4.898;2022-12-18T00:24:17;38.63;;;18.43;;
7665;SDS011;3875;46.562;4.898;2022-12-18T00:26:43;34.80;;;17.10;;
7665;SDS011;3875;46.562;4.898;2022-12-18T00:29:10;38.33;;;18.93;;
7665;SDS011;3875;46.562;4.898;2022-12-18T00:31:38;36.13;;;19.17;;
7665;SDS011;3875;46.562;4.898;2022-12-18T00:34:05;40.53;;;20.53;;
7665;SDS011;3875;46.562;4.898;2022-12-18T00:36:32;38.93;;;19.10;;
7665;SDS011;3875;46.562;4.898;2022-12-18T00:38:59;39.17;;;18.50;;
7665;SDS011;3875;46.562;4.898;2022-12-18T00:41:26;36.90;;;18.50;;
7665;SDS011;3875;46.562;4.898;2022-12-18T00:44:12;39.10;;;18.87;;
7665;SDS011;3875;46.562;4.898;2022-12-18T00:46:39;33.30;;;16.40;;
7665;SDS011;3875;46.562;4.898;2022-12-18T00:49:06;38.47;;;19.27;;
7665;SDS011;3875;46.562;4.898;2022-12-18T00:51:31;36.73;;;18.17;;
7665;SDS011;3875;46.562;4.898;2022-12-18T00:53:57;39.30;;;17.60;;
7665;SDS011;3875;46.562;4.898;2022-12-18T00:56:23;42.23;;;21.07;;
7665;SDS011;3875;46.562;4.898;2022-12-18T00:58:49;39.00;;;20.20;;
7665;SDS011;3875;46.562;4.898;2022-12-18T01:01:15;43.00;;;20.50;;
7665;SDS011;3875;46.562;4.898;2022-12-18T01:03:41;40.43;;;20.70;;
7665;SDS011;3875;46.562;4.898;2022-12-18T01:06:07;43.47;;;20.20;;
7665;SDS011;3875;46.562;4.898;2022-12-18T01:08:34;47.83;;;21.97;;
7665;SDS011;3875;46.562;4.898;2022-12-18T01:11:01;45.13;;;20.03;;
7665;SDS011;3875;46.562;4.898;2022-12-18T01:13:32;42.20;;;19.53;;
7665;SDS011;3875;46.562;4.898;2022-12-18T01:15:58;46.37;;;21.47;;
7665;SDS011;3875;46.562;4.898;2022-12-18T01:18:23;46.53;;;21.77;;
7665;SDS011;3875;46.562;4.898;2022-12-18T01:20:49;42.17;;;18.17;;
7665;SDS011;3875;46.562;4.898;2022-12-18T01:23:15;48.23;;;21.43;;
7665;SDS011;3875;46.562;4.898;2022-12-18T01:25:40;43.87;;;20.37;;
7665;SDS011;3875;46.562;4.898;2022-12-18T01:28:06;52.30;;;21.33;;
7665;SDS011;3875;46.562;4.898;2022-12-18T01:30:32;44.00;;;21.53;;
7665;SDS011;3875;46.562;4.898;2022-12-18T01:32:57;48.63;;;19.97;;
7665;SDS011;3875;46.562;4.898;2022-12-18T01:35:23;43.37;;;20.33;;
7665;SDS011;3875;46.562;4.898;2022-12-18T01:37:49;47.57;;;21.50;;
7665;SDS011;3875;46.562;4.898;2022-12-18T01:40:18;52.10;;;21.20;;
7665;SDS011;3875;46.562;4.898;2022-12-18T01:42:44;54.63;;;22.67;;
7665;SDS011;3875;46.562;4.898;2022-12-18T01:47:53;48.23;;;22.43;;
7665;SDS011;3875;46.562;4.898;2022-12-18T01:53:10;48.20;;;23.00;;
7665;SDS011;3875;46.562;4.898;2022-12-18T01:56:02;43.33;;;20.13;;
7665;SDS011;3875;46.562;4.898;2022-12-18T01:59:13;48.50;;;21.50;;
7665;SDS011;3875;46.562;4.898;2022-12-18T02:01:20;53.20;;;21.43;;
7665;SDS011;3875;46.562;4.898;2022-12-18T02:03:48;50.27;;;20.57;;
7665;SDS011;3875;46.562;4.898;2022-12-18T02:06:33;51.03;;;20.50;;
7665;SDS011;3875;46.562;4.898;2022-12-18T02:14:31;42.67;;;19.00;;
7665;SDS011;3875;46.562;4.898;2022-12-18T02:17:03;44.83;;;18.53;;
7665;SDS011;3875;46.562;4.898;2022-12-18T02:25:35;39.97;;;17.73;;
7665;SDS011;3875;46.562;4.898;2022-12-18T02:28:04;43.90;;;18.80;;
7665;SDS011;3875;46.562;4.898;2022-12-18T02:30:33;37.83;;;15.53;;
7665;SDS011;3875;46.562;4.898;2022-12-18T02:33:01;47.07;;;18.90;;
7665;SDS011;3875;46.562;4.898;2022-12-18T02:35:31;38.07;;;16.73;;
7665;SDS011;3875;46.562;4.898;2022-12-18T02:37:58;35.60;;;16.63;;
7665;SDS011;3875;46.562;4.898;2022-12-18T02:40:26;41.07;;;17.77;;
7665;SDS011;3875;46.562;4.898;2022-12-18T02:42:53;38.87;;;17.17;;
7665;SDS011;3875;46.562;4.898;2022-12-18T02:45:19;41.80;;;16.43;;
7665;SDS011;3875;46.562;4.898;2022-12-18T02:47:46;44.63;;;18.47;;
7665;SDS011;3875;46.562;4.898;2022-12-18T02:58:33;40.87;;;17.23;;
7665;SDS011;3875;46.562;4.898;2022-12-18T03:04:18;46.80;;;18.53;;
7665;SDS011;3875;46.562;4.898;2022-12-18T03:06:58;41.07;;;17.23;;
7665;SDS011;3875;46.562;4.898;2022-12-18T03:09:30;36.47;;;16.17;;
7665;SDS011;3875;46.562;4.898;2022-12-18T03:12:04;42.17;;;16.50;;
7665;SDS011;3875;46.562;4.898;2022-12-18T03:14:55;48.77;;;15.70;;
7665;SDS011;3875;46.562;4.898;2022-12-18T03:17:26;41.67;;;16.10;;
7665;SDS011;3875;46.562;4.898;2022-12-18T03:19:56;44.93;;;15.30;;
7665;SDS011;3875;46.562;4.898;2022-12-18T03:22:27;45.77;;;16.10;;
7665;SDS011;3875;46.562;4.898;2022-12-18T03:24:56;37.67;;;15.30;;
7665;SDS011;3875;46.562;4.898;2022-12-18T03:27:26;46.67;;;17.70;;
7665;SDS011;3875;46.562;4.898;2022-12-18T03:30:13;44.37;;;16.07;;
7665;SDS011;3875;46.562;4.898;2022-12-18T03:32:42;44.80;;;15.93;;
7665;SDS011;3875;46.562;4.898;2022-12-18T03:35:22;39.03;;;15.47;;
7665;SDS011;3875;46.562;4.898;2022-12-18T03:37:53;35.97;;;15.13;;
7665;SDS011;3875;46.562;4.898;2022-12-18T03:40:20;39.40;;;15.77;;
7665;SDS011;3875;46.562;4.898;2022-12-18T03:42:59;48.27;;;15.73;;
7665;SDS011;3875;46.562;4.898;2022-12-18T03:45:34;42.40;;;15.67;;
7665;SDS011;3875;46.562;4.898;2022-12-18T03:48:07;43.27;;;16.23;;
7665;SDS011;3875;46.562;4.898;2022-12-18T03:55:56;41.27;;;15.37;;
7665;SDS011;3875;46.562;4.898;2022-12-18T03:58:24;46.13;;;15.53;;
7665;SDS011;3875;46.562;4.898;2022-12-18T04:00:52;37.33;;;14.03;;
7665;SDS011;3875;46.562;4.898;2022-12-18T04:03:20;48.83;;;15.97;;
7665;SDS011;3875;46.562;4.898;2022-12-18T04:05:48;46.97;;;17.40;;
7665;SDS011;3875;46.562;4.898;2022-12-18T04:08:17;40.27;;;17.70;;
7665;SDS011;3875;46.562;4.898;2022-12-18T04:10:43;40.57;;;14.77;;
7665;SDS011;3875;46.562;4.898;2022-12-18T04:13:09;43.30;;;17.20;;
7665;SDS011;3875;46.562;4.898;2022-12-18T04:15:35;38.73;;;15.10;;
7665;SDS011;3875;46.562;4.898;2022-12-18T04:18:02;37.43;;;14.07;;
7665;SDS011;3875;46.562;4.898;2022-12-18T04:20:28;37.07;;;15.33;;
7665;SDS011;3875;46.562;4.898;2022-12-18T04:22:54;37.00;;;14.70;;
7665;SDS011;3875;46.562;4.898;2022-12-18T04:25:19;47.20;;;16.40;;
7665;SDS011;3875;46.562;4.898;2022-12-18T04:27:45;37.50;;;14.23;;
7665;SDS011;3875;46.562;4.898;2022-12-18T04:30:11;42.70;;;15.47;;
7665;SDS011;3875;46.562;4.898;2022-12-18T04:32:37;39.60;;;14.97;;
7665;SDS011;3875;46.562;4.898;2022-12-18T04:35:03;46.60;;;15.67;;
7665;SDS011;3875;46.562;4.898;2022-12-18T04:37:31;43.00;;;14.00;;
7665;SDS011;3875;46.562;4.898;2022-12-18T04:39:57;37.13;;;14.17;;
7665;SDS011;3875;46.562;4.898;2022-12-18T04:42:22;35.03;;;14.13;;
7665;SDS011;3875;46.562;4.898;2022-12-18T04:44:48;52.57;;;16.13;;
7665;SDS011;3875;46.562;4.898;2022-12-18T04:47:14;39.43;;;14.60;;
7665;SDS011;3875;46.562;4.898;2022-12-18T04:49:40;45.53;;;14.27;;
7665;SDS011;3875;46.562;4.898;2022-12-18T04:52:08;41.73;;;14.77;;
7665;SDS011;3875;46.562;4.898;2022-12-18T04:54:34;44.33;;;14.63;;
7665;SDS011;3875;46.562;4.898;2022-12-18T04:57:00;47.30;;;15.50;;
7665;SDS011;3875;46.562;4.898;2022-12-18T04:59:25;42.30;;;14.43;;
7665;SDS011;3875;46.562;4.898;2022-12-18T05:01:51;40.87;;;14.87;;
7665;SDS011;3875;46.562;4.898;2022-12-18T05:04:17;48.40;;;17.13;;
7665;SDS011;3875;46.562;4.898;2022-12-18T05:06:42;37.93;;;14.73;;
7665;SDS011;3875;46.562;4.898;2022-12-18T05:09:08;41.53;;;15.60;;
7665;SDS011;3875;46.562;4.898;2022-12-18T05:11:37;42.03;;;16.83;;
7665;SDS011;3875;46.562;4.898;2022-12-18T05:14:02;42.80;;;15.63;;
7665;SDS011;3875;46.562;4.898;2022-12-18T05:16:28;43.10;;;13.60;;
7665;SDS011;3875;46.562;4.898;2022-12-18T05:18:54;47.17;;;15.53;;
7665;SDS011;3875;46.562;4.898;2022-12-18T05:21:19;36.33;;;13.43;;
7665;SDS011;3875;46.562;4.898;2022-12-18T05:23:45;41.43;;;15.90;;
7665;SDS011;3875;46.562;4.898;2022-12-18T05:26:14;47.60;;;15.97;;
7665;SDS011;3875;46.562;4.898;2022-12-18T05:28:42;45.83;;;14.80;;
7665;SDS011;3875;46.562;4.898;2022-12-18T05:31:07;34.50;;;15.20;;
7665;SDS011;3875;46.562;4.898;2022-12-18T05:33:34;40.20;;;14.90;;
7665;SDS011;3875;46.562;4.898;2022-12-18T05:36:06;45.03;;;15.03;;
7665;SDS011;3875;46.562;4.898;2022-12-18T05:38:34;41.30;;;15.13;;
7665;SDS011;3875;46.562;4.898;2022-12-18T05:41:01;46.70;;;15.93;;
7665;SDS011;3875;46.562;4.898;2022-12-18T05:43:28;49.30;;;15.60;;
7665;SDS011;3875;46.562;4.898;2022-12-18T05:45:54;43.20;;;15.80;;
7665;SDS011;3875;46.562;4.898;2022-12-18T05:48:20;35.50;;;14.73;;
7665;SDS011;3875;46.562;4.898;2022-12-18T05:50:47;53.97;;;14.23;;
7665;SDS011;3875;46.562;4.898;2022-12-18T05:53:14;46.17;;;14.93;;
7665;SDS011;3875;46.562;4.898;2022-12-18T05:55:43;51.60;;;14.97;;
7665;SDS011;3875;46.562;4.898;2022-12-18T05:58:10;55.77;;;13.87;;
7665;SDS011;3875;46.562;4.898;2022-12-18T06:00:37;44.73;;;14.77;;
7665;SDS011;3875;46.562;4.898;2022-12-18T06:03:08;42.17;;;15.30;;
7665;SDS011;3875;46.562;4.898;2022-12-18T06:05:38;44.43;;;15.27;;
7665;SDS011;3875;46.562;4.898;2022-12-18T06:08:08;42.57;;;14.27;;
7665;SDS011;3875;46.562;4.898;2022-12-18T06:10:34;51.80;;;16.83;;
7665;SDS011;3875;46.562;4.898;2022-12-18T06:13:00;63.33;;;16.43;;
7665;SDS011;3875;46.562;4.898;2022-12-18T06:15:26;49.60;;;15.90;;
7665;SDS011;3875;46.562;4.898;2022-12-18T06:17:52;77.00;;;16.20;;
7665;SDS011;3875;46.562;4.898;2022-12-18T06:20:18;75.40;;;15.77;;
7665;SDS011;3875;46.562;4.898;2022-12-18T06:22:44;48.30;;;15.10;;
7665;SDS011;3875;46.562;4.898;2022-12-18T06:25:09;51.67;;;16.53;;
7665;SDS011;3875;46.562;4.898;2022-12-18T06:27:35;58.77;;;14.63;;
7665;SDS011;3875;46.562;4.898;2022-12-18T06:30:01;64.10;;;16.70;;
7665;SDS011;3875;46.562;4.898;2022-12-18T06:32:27;53.13;;;16.63;;
7665;SDS011;3875;46.562;4.898;2022-12-18T06:34:53;71.73;;;18.50;;
7665;SDS011;3875;46.562;4.898;2022-12-18T06:37:20;60.27;;;16.90;;
7665;SDS011;3875;46.562;4.898;2022-12-18T06:39:46;63.83;;;17.60;;
7665;SDS011;3875;46.562;4.898;2022-12-18T06:42:12;56.30;;;16.80;;
7665;SDS011;3875;46.562;4.898;2022-12-18T06:44:37;58.73;;;16.20;;
7665;SDS011;3875;46.562;4.898;2022-12-18T06:47:03;58.57;;;17.33;;
7665;SDS011;3875;46.562;4.898;2022-12-18T06:49:29;72.90;;;17.40;;
7665;SDS011;3875;46.562;4.898;2022-12-18T06:51:55;61.83;;;16.70;;
7665;SDS011;3875;46.562;4.898;2022-12-18T06:54:20;62.90;;;16.23;;
7665;SDS011;3875;46.562;4.898;2022-12-18T06:56:46;70.30;;;19.70;;
7665;SDS011;3875;46.562;4.898;2022-12-18T06:59:12;77.30;;;18.53;;
7665;SDS011;3875;46.562;4.898;2022-12-18T07:01:39;70.93;;;19.20;;
7665;SDS011;3875;46.562;4.898;2022-12-18T07:04:05;58.90;;;16.53;;
7665;SDS011;3875;46.562;4.898;2022-12-18T07:06:30;68.73;;;18.60;;
7665;SDS011;3875;46.562;4.898;2022-12-18T07:08:56;61.17;;;17.73;;
7665;SDS011;3875;46.562;4.898;2022-12-18T07:11:22;57.13;;;18.40;;
7665;SDS011;3875;46.562;4.898;2022-12-18T07:13:48;64.90;;;19.40;;
7665;SDS011;3875;46.562;4.898;2022-12-18T07:16:15;68.40;;;21.03;;
7665;SDS011;3875;46.562;4.898;2022-12-18T07:18:42;67.23;;;19.97;;
7665;SDS011;3875;46.562;4.898;2022-12-18T07:21:09;66.07;;;18.07;;
7665;SDS011;3875;46.562;4.898;2022-12-18T07:23:37;67.67;;;18.50;;
7665;SDS011;3875;46.562;4.898;2022-12-18T07:26:03;58.57;;;18.77;;
7665;SDS011;3875;46.562;4.898;2022-12-18T07:28:30;64.47;;;20.50;;
7665;SDS011;3875;46.562;4.898;2022-12-18T07:30:57;57.33;;;19.43;;
7665;SDS011;3875;46.562;4.898;2022-12-18T07:33:24;74.43;;;20.30;;
7665;SDS011;3875;46.562;4.898;2022-12-18T07:35:50;46.73;;;18.17;;
7665;SDS011;3875;46.562;4.898;2022-12-18T07:38:16;65.83;;;21.07;;
7665;SDS011;3875;46.562;4.898;2022-12-18T07:40:41;59.27;;;19.67;;
7665;SDS011;3875;46.562;4.898;2022-12-18T07:43:07;59.83;;;20.33;;
7665;SDS011;3875;46.562;4.898;2022-12-18T07:45:33;63.00;;;20.60;;
7665;SDS011;3875;46.562;4.898;2022-12-18T07:47:58;73.37;;;22.00;;
7665;SDS011;3875;46.562;4.898;2022-12-18T07:50:24;60.13;;;20.90;;
7665;SDS011;3875;46.562;4.898;2022-12-18T07:52:50;55.27;;;18.97;;
7665;SDS011;3875;46.562;4.898;2022-12-18T07:55:15;53.53;;;19.17;;
7665;SDS011;3875;46.562;4.898;2022-12-18T07:57:41;59.40;;;21.00;;
7665;SDS011;3875;46.562;4.898;2022-12-18T08:00:07;53.87;;;19.67;;
7665;SDS011;3875;46.562;4.898;2022-12-18T08:02:33;53.83;;;19.43;;
7665;SDS011;3875;46.562;4.898;2022-12-18T08:04:59;55.73;;;20.97;;
7665;SDS011;3875;46.562;4.898;2022-12-18T08:07:24;48.63;;;18.93;;
7665;SDS011;3875;46.562;4.898;2022-12-18T08:09:50;47.17;;;20.27;;
7665;SDS011;3875;46.562;4.898;2022-12-18T08:12:16;47.10;;;19.40;;
7665;SDS011;3875;46.562;4.898;2022-12-18T08:14:41;52.63;;;20.23;;
7665;SDS011;3875;46.562;4.898;2022-12-18T08:17:07;57.83;;;21.30;;
7665;SDS011;3875;46.562;4.898;2022-12-18T08:19:33;44.87;;;19.47;;
7665;SDS011;3875;46.562;4.898;2022-12-18T08:21:58;40.90;;;19.43;;
7665;SDS011;3875;46.562;4.898;2022-12-18T08:24:24;48.87;;;20.50;;
7665;SDS011;3875;46.562;4.898;2022-12-18T08:26:50;47.43;;;19.07;;
7665;SDS011;3875;46.562;4.898;2022-12-18T08:29:16;49.80;;;20.47;;
7665;SDS011;3875;46.562;4.898;2022-12-18T08:31:42;40.73;;;19.67;;
7665;SDS011;3875;46.562;4.898;2022-12-18T08:34:08;47.20;;;19.13;;
7665;SDS011;3875;46.562;4.898;2022-12-18T08:36:34;52.20;;;19.93;;
7665;SDS011;3875;46.562;4.898;2022-12-18T08:39:00;53.23;;;21.37;;
7665;SDS011;3875;46.562;4.898;2022-12-18T08:41:25;47.13;;;19.83;;
7665;SDS011;3875;46.562;4.898;2022-12-18T08:43:51;39.43;;;17.67;;
7665;SDS011;3875;46.562;4.898;2022-12-18T08:46:39;44.20;;;19.07;;
7665;SDS011;3875;46.562;4.898;2022-12-18T08:49:07;43.20;;;19.43;;
7665;SDS011;3875;46.562;4.898;2022-12-18T08:51:34;49.93;;;19.73;;
7665;SDS011;3875;46.562;4.898;2022-12-18T08:54:00;43.37;;;19.13;;
7665;SDS011;3875;46.562;4.898;2022-12-18T08:56:27;45.80;;;18.40;;
7665;SDS011;3875;46.562;4.898;2022-12-18T08:58:53;48.37;;;20.77;;
7665;SDS011;3875;46.562;4.898;2022-12-18T09:01:19;43.33;;;19.13;;
7665;SDS011;3875;46.562;4.898;2022-12-18T09:03:45;44.50;;;19.70;;
7665;SDS011;3875;46.562;4.898;2022-12-18T09:06:13;41.97;;;18.93;;
7665;SDS011;3875;46.562;4.898;2022-12-18T09:08:41;40.73;;;18.43;;
7665;SDS011;3875;46.562;4.898;2022-12-18T09:11:11;42.63;;;19.00;;
7665;SDS011;3875;46.562;4.898;2022-12-18T09:13:43;35.60;;;16.37;;
7665;SDS011;3875;46.562;4.898;2022-12-18T09:16:09;42.40;;;20.63;;
7665;SDS011;3875;46.562;4.898;2022-12-18T09:18:35;35.80;;;16.63;;
7665;SDS011;3875;46.562;4.898;2022-12-18T09:21:06;45.90;;;18.93;;
7665;SDS011;3875;46.562;4.898;2022-12-18T09:23:52;45.23;;;21.00;;
7665;SDS011;3875;46.562;4.898;2022-12-18T09:26:20;34.73;;;17.67;;
7665;SDS011;3875;46.562;4.898;2022-12-18T09:28:49;43.93;;;20.17;;
7665;SDS011;3875;46.562;4.898;2022-12-18T09:31:16;39.20;;;18.10;;
7665;SDS011;3875;46.562;4.898;2022-12-18T09:33:43;33.97;;;18.40;;
7665;SDS011;3875;46.562;4.898;2022-12-18T09:36:11;43.23;;;19.07;;
7665;SDS011;3875;46.562;4.898;2022-12-18T09:38:39;36.63;;;18.13;;
7665;SDS011;3875;46.562;4.898;2022-12-18T09:41:51;45.13;;;19.63;;
7665;SDS011;3875;46.562;4.898;2022-12-18T09:45:08;38.10;;;18.30;;
7665;SDS011;3875;46.562;4.898;2022-12-18T09:47:15;40.73;;;18.40;;
7665;SDS011;3875;46.562;4.898;2022-12-18T09:49:46;35.53;;;17.27;;
7665;SDS011;3875;46.562;4.898;2022-12-18T09:54:53;35.23;;;17.87;;
7665;SDS011;3875;46.562;4.898;2022-12-18T09:57:24;41.53;;;18.83;;
7665;SDS011;3875;46.562;4.898;2022-12-18T09:59:55;38.43;;;18.33;;
7665;SDS011;3875;46.562;4.898;2022-12-18T10:02:30;42.83;;;20.13;;
7665;SDS011;3875;46.562;4.898;2022-12-18T10:05:04;39.83;;;19.00;;
7665;SDS011;3875;46.562;4.898;2022-12-18T10:07:55;40.43;;;19.23;;
7665;SDS011;3875;46.562;4.898;2022-12-18T10:16:47;37.73;;;19.00;;
7665;SDS011;3875;46.562;4.898;2022-12-18T10:21:51;40.33;;;19.37;;
7665;SDS011;3875;46.562;4.898;2022-12-18T10:27:24;34.57;;;18.30;;
7665;SDS011;3875;46.562;4.898;2022-12-18T10:29:50;36.90;;;18.67;;
7665;SDS011;3875;46.562;4.898;2022-12-18T10:32:17;42.30;;;19.73;;
7665;SDS011;3875;46.562;4.898;2022-12-18T10:34:54;35.97;;;18.13;;
7665;SDS011;3875;46.562;4.898;2022-12-18T10:37:22;34.73;;;16.53;;
7665;SDS011;3875;46.562;4.898;2022-12-18T10:40:12;32.97;;;16.67;;
7665;SDS011;3875;46.562;4.898;2022-12-18T10:42:38;30.87;;;15.57;;
7665;SDS011;3875;46.562;4.898;2022-12-18T10:45:14;34.20;;;16.57;;
7665;SDS011;3875;46.562;4.898;2022-12-18T10:47:46;34.93;;;17.53;;
7665;SDS011;3875;46.562;4.898;2022-12-18T10:52:59;37.63;;;17.23;;
7665;SDS011;3875;46.562;4.898;2022-12-18T10:55:31;37.30;;;17.00;;
7665;SDS011;3875;46.562;4.898;2022-12-18T10:58:22;35.50;;;18.87;;
7665;SDS011;3875;46.562;4.898;2022-12-18T11:01:08;37.47;;;16.70;;
7665;SDS011;3875;46.562;4.898;2022-12-18T11:03:44;35.53;;;17.23;;
7665;SDS011;3875;46.562;4.898;2022-12-18T11:06:12;37.53;;;16.73;;
7665;SDS011;3875;46.562;4.898;2022-12-18T11:08:40;36.47;;;18.10;;
7665;SDS011;3875;46.562;4.898;2022-12-18T11:11:14;33.10;;;17.63;;
7665;SDS011;3875;46.562;4.898;2022-12-18T11:14:05;35.07;;;17.07;;
7665;SDS011;3875;46.562;4.898;2022-12-18T11:16:44;34.63;;;17.07;;
7665;SDS011;3875;46.562;4.898;2022-12-18T11:22:24;33.10;;;16.97;;
7665;SDS011;3875;46.562;4.898;2022-12-18T11:25:04;34.27;;;17.17;;
7665;SDS011;3875;46.562;4.898;2022-12-18T11:36:24;39.27;;;19.00;;
7665;SDS011;3875;46.562;4.898;2022-12-18T11:38:53;33.73;;;18.03;;
7665;SDS011;3875;46.562;4.898;2022-12-18T11:44:45;32.30;;;17.50;;
7665;SDS011;3875;46.562;4.898;2022-12-18T11:47:24;35.40;;;16.93;;
7665;SDS011;3875;46.562;4.898;2022-12-18T11:49:56;29.67;;;17.07;;
7665;SDS011;3875;46.562;4.898;2022-12-18T11:52:27;36.23;;;18.30;;
7665;SDS011;3875;46.562;4.898;2022-12-18T11:55:05;32.70;;;17.90;;
7665;SDS011;3875;46.562;4.898;2022-12-18T12:00:32;29.33;;;16.83;;
7665;SDS011;3875;46.562;4.898;2022-12-18T12:06:31;27.60;;;16.20;;
7665;SDS011;3875;46.562;4.898;2022-12-18T12:09:19;30.13;;;15.67;;
7665;SDS011;3875;46.562;4.898;2022-12-18T12:12:10;28.73;;;15.70;;
7665;SDS011;3875;46.562;4.898;2022-12-18T12:17:36;31.37;;;16.93;;
7665;SDS011;3875;46.562;4.898;2022-12-18T12:20:23;30.20;;;16.57;;
7665;SDS011;3875;46.562;4.898;2022-12-18T12:26:10;33.67;;;16.03;;
7665;SDS011;3875;46.562;4.898;2022-12-18T12:39:30;26.40;;;15.17;;
7665;SDS011;3875;46.562;4.898;2022-12-18T12:41:59;32.20;;;15.70;;
7665;SDS011;3875;46.562;4.898;2022-12-18T12:44:47;27.07;;;14.40;;
7665;SDS011;3875;46.562;4.898;2022-12-18T12:47:20;29.40;;;15.07;;
7665;SDS011;3875;46.562;4.898;2022-12-18T12:49:51;27.90;;;15.33;;
7665;SDS011;3875;46.562;4.898;2022-12-18T12:54:56;22.47;;;13.53;;
7665;SDS011;3875;46.562;4.898;2022-12-18T12:57:23;33.03;;;15.30;;
7665;SDS011;3875;46.562;4.898;2022-12-18T13:05:43;28.27;;;14.60;;
7665;SDS011;3875;46.562;4.898;2022-12-18T13:08:22;27.90;;;14.37;;
7665;SDS011;3875;46.562;4.898;2022-12-18T13:10:50;27.50;;;14.57;;
7665;SDS011;3875;46.562;4.898;2022-12-18T13:13:50;25.10;;;14.03;;
7665;SDS011;3875;46.562;4.898;2022-12-18T13:16:21;26.10;;;14.77;;
7665;SDS011;3875;46.562;4.898;2022-12-18T13:18:49;26.60;;;14.37;;
7665;SDS011;3875;46.562;4.898;2022-12-18T13:21:34;28.90;;;15.27;;
7665;SDS011;3875;46.562;4.898;2022-12-18T13:24:19;28.00;;;15.07;;
7665;SDS011;3875;46.562;4.898;2022-12-18T13:26:52;25.63;;;15.67;;
7665;SDS011;3875;46.562;4.898;2022-12-18T13:30:01;31.37;;;15.67;;
7665;SDS011;3875;46.562;4.898;2022-12-18T13:32:23;26.87;;;15.17;;
7665;SDS011;3875;46.562;4.898;2022-12-18T13:37:51;28.67;;;14.77;;
7665;SDS011;3875;46.562;4.898;2022-12-18T13:45:50;29.10;;;16.47;;
7665;SDS011;3875;46.562;4.898;2022-12-18T13:48:24;26.13;;;15.33;;
7665;SDS011;3875;46.562;4.898;2022-12-18T13:50:56;28.20;;;15.27;;
7665;SDS011;3875;46.562;4.898;2022-12-18T13:53:29;31.60;;;15.27;;
7665;SDS011;3875;46.562;4.898;2022-12-18T13:55:59;23.40;;;13.97;;
7665;SDS011;3875;46.562;4.898;2022-12-18T13:58:25;26.80;;;14.73;;
7665;SDS011;3875;46.562;4.898;2022-12-18T14:00:51;28.57;;;15.73;;
7665;SDS011;3875;46.562;4.898;2022-12-18T14:03:24;27.83;;;16.00;;
7665;SDS011;3875;46.562;4.898;2022-12-18T14:05:55;28.07;;;16.27;;
7665;SDS011;3875;46.562;4.898;2022-12-18T14:08:25;26.93;;;15.17;;
7665;SDS011;3875;46.562;4.898;2022-12-18T14:10:57;25.40;;;14.97;;
7665;SDS011;3875;46.562;4.898;2022-12-18T14:13:24;28.70;;;16.07;;
7665;SDS011;3875;46.562;4.898;2022-12-18T14:15:54;23.57;;;14.17;;
7665;SDS011;3875;46.562;4.898;2022-12-18T14:18:23;26.73;;;15.63;;
7665;SDS011;3875;46.562;4.898;2022-12-18T14:20:50;33.00;;;17.30;;
7665;SDS011;3875;46.562;4.898;2022-12-18T14:23:37;29.53;;;16.20;;
7665;SDS011;3875;46.562;4.898;2022-12-18T14:28:46;30.97;;;17.10;;
7665;SDS011;3875;46.562;4.898;2022-12-18T14:31:21;34.03;;;17.77;;
7665;SDS011;3875;46.562;4.898;2022-12-18T14:33:51;33.63;;;16.80;;
7665;SDS011;3875;46.562;4.898;2022-12-18T14:36:27;33.27;;;18.77;;
7665;SDS011;3875;46.562;4.898;2022-12-18T14:38:55;30.03;;;16.93;;
7665;SDS011;3875;46.562;4.898;2022-12-18T14:41:24;33.03;;;16.67;;
7665;SDS011;3875;46.562;4.898;2022-12-18T14:43:51;31.33;;;16.60;;
7665;SDS011;3875;46.562;4.898;2022-12-18T14:49:00;30.03;;;16.53;;
7665;SDS011;3875;46.562;4.898;2022-12-18T14:51:29;32.47;;;16.83;;
7665;SDS011;3875;46.562;4.898;2022-12-18T14:54:02;35.33;;;19.10;;
7665;SDS011;3875;46.562;4.898;2022-12-18T14:56:36;32.63;;;18.33;;
7665;SDS011;3875;46.562;4.898;2022-12-18T14:59:15;38.27;;;17.53;;
7665;SDS011;3875;46.562;4.898;2022-12-18T15:01:46;37.03;;;21.20;;
7665;SDS011;3875;46.562;4.898;2022-12-18T15:04:24;34.23;;;19.03;;
7665;SDS011;3875;46.562;4.898;2022-12-18T15:07:07;33.30;;;17.77;;
7665;SDS011;3875;46.562;4.898;2022-12-18T15:09:34;31.23;;;15.60;;
7665;SDS011;3875;46.562;4.898;2022-12-18T15:12:01;31.23;;;16.70;;
7665;SDS011;3875;46.562;4.898;2022-12-18T15:14:34;32.80;;;17.20;;
7665;SDS011;3875;46.562;4.898;2022-12-18T15:17:02;31.40;;;16.73;;
7665;SDS011;3875;46.562;4.898;2022-12-18T15:19:48;33.57;;;18.53;;
7665;SDS011;3875;46.562;4.898;2022-12-18T15:22:18;29.40;;;16.43;;
7665;SDS011;3875;46.562;4.898;2022-12-18T15:24:55;27.73;;;16.13;;
7665;SDS011;3875;46.562;4.898;2022-12-18T15:27:26;31.67;;;17.37;;
7665;SDS011;3875;46.562;4.898;2022-12-18T15:32:35;31.20;;;18.87;;
7665;SDS011;3875;46.562;4.898;2022-12-18T15:35:23;57.23;;;30.37;;
7665;SDS011;3875;46.562;4.898;2022-12-18T15:37:50;42.90;;;23.77;;
7665;SDS011;3875;46.562;4.898;2022-12-18T15:40:23;51.80;;;25.30;;
7665;SDS011;3875;46.562;4.898;2022-12-18T15:42:49;41.40;;;22.30;;
7665;SDS011;3875;46.562;4.898;2022-12-18T15:45:37;36.10;;;20.17;;
7665;SDS011;3875;46.562;4.898;2022-12-18T15:48:14;30.80;;;18.27;;
7665;SDS011;3875;46.562;4.898;2022-12-18T15:50:45;34.50;;;18.47;;
7665;SDS011;3875;46.562;4.898;2022-12-18T15:53:11;31.23;;;17.03;;
7665;SDS011;3875;46.562;4.898;2022-12-18T15:55:36;28.07;;;17.30;;
7665;SDS011;3875;46.562;4.898;2022-12-18T15:58:21;34.07;;;18.60;;
7665;SDS011;3875;46.562;4.898;2022-12-18T16:00:47;30.27;;;17.63;;
7665;SDS011;3875;46.562;4.898;2022-12-18T16:03:13;38.50;;;19.77;;
7665;SDS011;3875;46.562;4.898;2022-12-18T16:05:39;35.20;;;19.10;;
7665;SDS011;3875;46.562;4.898;2022-12-18T16:08:04;36.10;;;20.50;;
7665;SDS011;3875;46.562;4.898;2022-12-18T16:10:30;35.53;;;19.17;;
7665;SDS011;3875;46.562;4.898;2022-12-18T16:12:56;40.20;;;19.87;;
7665;SDS011;3875;46.562;4.898;2022-12-18T16:15:21;38.90;;;21.10;;
7665;SDS011;3875;46.562;4.898;2022-12-18T16:17:47;37.23;;;20.33;;
7665;SDS011;3875;46.562;4.898;2022-12-18T16:20:16;37.87;;;21.70;;
7665;SDS011;3875;46.562;4.898;2022-12-18T16:22:45;40.20;;;19.27;;
7665;SDS011;3875;46.562;4.898;2022-12-18T16:25:22;35.80;;;19.43;;
7665;SDS011;3875;46.562;4.898;2022-12-18T16:27:50;32.43;;;18.93;;
7665;SDS011;3875;46.562;4.898;2022-12-18T16:30:17;35.43;;;19.57;;
7665;SDS011;3875;46.562;4.898;2022-12-18T16:32:45;36.17;;;18.57;;
7665;SDS011;3875;46.562;4.898;2022-12-18T16:35:11;36.03;;;18.10;;
7665;SDS011;3875;46.562;4.898;2022-12-18T16:37:39;37.80;;;19.50;;
7665;SDS011;3875;46.562;4.898;2022-12-18T16:40:06;34.80;;;18.37;;
7665;SDS011;3875;46.562;4.898;2022-12-18T16:42:34;35.50;;;20.00;;
7665;SDS011;3875;46.562;4.898;2022-12-18T16:45:01;38.00;;;19.50;;
7665;SDS011;3875;46.562;4.898;2022-12-18T16:47:27;35.00;;;18.50;;
7665;SDS011;3875;46.562;4.898;2022-12-18T16:49:53;32.20;;;18.90;;
7665;SDS011;3875;46.562;4.898;2022-12-18T16:52:20;33.83;;;18.07;;
7665;SDS011;3875;46.562;4.898;2022-12-18T16:54:46;36.20;;;19.97;;
7665;SDS011;3875;46.562;4.898;2022-12-18T16:57:13;33.00;;;19.00;;